sensor_id;sensor_type;location;lat;lon;timestamp;P1;durP1;ratioP1;P2;durP2;ratioP2
22851;SDS011;11592;45.460;9.240;2023-04-06T00:00:17;8.93;;;5.55;;
22851;SDS011;11592;45.460;9.240;2023-04-06T00:02:44;11.40;;;5.25;;
22851;SDS011;11592;45.460;9.240;2023-04-06T00:05:11;10.60;;;5.50;;
22851;SDS011;11592;45.460;9.240;2023-04-06T00:07:38;11.35;;;5.65;;
22851;SDS011;11592;45.460;9.240;2023-04-06T00:10:05;11.00;;;5.93;;
22851;SDS011;11592;45.460;9.240;2023-04-06T00:12:32;11.70;;;5.45;;
22851;SDS011;11592;45.460;9.240;2023-04-06T00:14:59;13.32;;;5.28;;
22851;SDS011;11592;45.460;9.240;2023-04-06T00:17:27;12.70;;;6.13;;
22851;SDS011;11592;45.460;9.240;2023-04-06T00:19:54;15.23;;;6.03;;
22851;SDS011;11592;45.460;9.240;2023-04-06T00:22:21;10.60;;;5.63;;
22851;SDS011;11592;45.460;9.240;2023-04-06T00:24:48;8.45;;;5.68;;
22851;SDS011;11592;45.460;9.240;2023-04-06T00:27:14;10.32;;;5.38;;
22851;SDS011;11592;45.460;9.240;2023-04-06T00:29:41;8.95;;;5.70;;
22851;SDS011;11592;45.460;9.240;2023-04-06T00:32:09;11.50;;;5.70;;
22851;SDS011;11592;45.460;9.240;2023-04-06T00:34:36;8.00;;;5.60;;
22851;SDS011;11592;45.460;9.240;2023-04-06T00:37:03;7.47;;;5.07;;
22851;SDS011;11592;45.460;9.240;2023-04-06T00:39:29;10.00;;;5.70;;
22851;SDS011;11592;45.460;9.240;2023-04-06T00:41:56;11.65;;;5.97;;
22851;SDS011;11592;45.460;9.240;2023-04-06T00:44:23;10.65;;;5.25;;
22851;SDS011;11592;45.460;9.240;2023-04-06T00:46:50;9.50;;;5.55;;
22851;SDS011;11592;45.460;9.240;2023-04-06T00:49:17;10.60;;;5.93;;
22851;SDS011;11592;45.460;9.240;2023-04-06T00:51:44;12.15;;;6.00;;
22851;SDS011;11592;45.460;9.240;2023-04-06T00:54:11;12.70;;;5.65;;
22851;SDS011;11592;45.460;9.240;2023-04-06T00:56:38;12.65;;;5.57;;
22851;SDS011;11592;45.460;9.240;2023-04-06T00:59:05;10.90;;;5.75;;
22851;SDS011;11592;45.460;9.240;2023-04-06T01:01:32;16.90;;;6.20;;
22851;SDS011;11592;45.460;9.240;2023-04-06T01:03:59;13.40;;;5.70;;
22851;SDS011;11592;45.460;9.240;2023-04-06T01:06:26;10.25;;;5.93;;
22851;SDS011;11592;45.460;9.240;2023-04-06T01:08:53;7.93;;;5.68;;
22851;SDS011;11592;45.460;9.240;2023-04-06T01:11:19;11.80;;;6.20;;
22851;SDS011;11592;45.460;9.240;2023-04-06T01:13:47;10.63;;;6.18;;
22851;SDS011;11592;45.460;9.240;2023-04-06T01:16:14;10.55;;;6.55;;
22851;SDS011;11592;45.460;9.240;2023-04-06T01:18:41;12.57;;;6.68;;
22851;SDS011;11592;45.460;9.240;2023-04-06T01:21:08;16.65;;;6.10;;
22851;SDS011;11592;45.460;9.240;2023-04-06T01:23:44;9.70;;;5.97;;
22851;SDS011;11592;45.460;9.240;2023-04-06T01:26:12;11.02;;;6.45;;
22851;SDS011;11592;45.460;9.240;2023-04-06T01:28:39;11.13;;;6.47;;
22851;SDS011;11592;45.460;9.240;2023-04-06T01:31:07;11.82;;;6.15;;
22851;SDS011;11592;45.460;9.240;2023-04-06T01:33:35;9.52;;;6.35;;
22851;SDS011;11592;45.460;9.240;2023-04-06T01:36:03;12.63;;;6.60;;
22851;SDS011;11592;45.460;9.240;2023-04-06T01:38:30;11.63;;;6.53;;
22851;SDS011;11592;45.460;9.240;2023-04-06T01:40:56;12.60;;;7.10;;
22851;SDS011;11592;45.460;9.240;2023-04-06T01:43:23;13.40;;;6.90;;
22851;SDS011;11592;45.460;9.240;2023-04-06T01:45:50;17.17;;;7.22;;
22851;SDS011;11592;45.460;9.240;2023-04-06T01:48:17;12.07;;;6.78;;
22851;SDS011;11592;45.460;9.240;2023-04-06T01:50:44;14.35;;;6.43;;
22851;SDS011;11592;45.460;9.240;2023-04-06T01:53:11;16.55;;;7.15;;
22851;SDS011;11592;45.460;9.240;2023-04-06T01:55:38;11.00;;;6.70;;
22851;SDS011;11592;45.460;9.240;2023-04-06T01:58:05;12.45;;;7.45;;
22851;SDS011;11592;45.460;9.240;2023-04-06T02:00:31;10.05;;;6.25;;
22851;SDS011;11592;45.460;9.240;2023-04-06T02:02:58;13.00;;;7.03;;
22851;SDS011;11592;45.460;9.240;2023-04-06T02:05:25;11.23;;;6.57;;
22851;SDS011;11592;45.460;9.240;2023-04-06T02:07:52;15.30;;;7.30;;
22851;SDS011;11592;45.460;9.240;2023-04-06T02:10:19;11.35;;;6.50;;
22851;SDS011;11592;45.460;9.240;2023-04-06T02:12:46;18.23;;;6.45;;
22851;SDS011;11592;45.460;9.240;2023-04-06T02:15:13;13.60;;;6.60;;
22851;SDS011;11592;45.460;9.240;2023-04-06T02:17:41;10.95;;;6.53;;
22851;SDS011;11592;45.460;9.240;2023-04-06T02:20:08;11.75;;;6.57;;
22851;SDS011;11592;45.460;9.240;2023-04-06T02:22:35;13.45;;;6.63;;
22851;SDS011;11592;45.460;9.240;2023-04-06T02:25:02;14.25;;;6.65;;
22851;SDS011;11592;45.460;9.240;2023-04-06T02:27:29;17.15;;;7.10;;
22851;SDS011;11592;45.460;9.240;2023-04-06T02:29:56;12.45;;;6.70;;
22851;SDS011;11592;45.460;9.240;2023-04-06T02:32:23;11.95;;;6.88;;
22851;SDS011;11592;45.460;9.240;2023-04-06T02:34:51;18.05;;;7.35;;
22851;SDS011;11592;45.460;9.240;2023-04-06T02:37:18;12.70;;;7.03;;
22851;SDS011;11592;45.460;9.240;2023-04-06T02:39:45;12.27;;;7.47;;
22851;SDS011;11592;45.460;9.240;2023-04-06T02:42:11;13.10;;;7.07;;
22851;SDS011;11592;45.460;9.240;2023-04-06T02:44:38;14.63;;;7.07;;
22851;SDS011;11592;45.460;9.240;2023-04-06T02:47:05;10.88;;;6.55;;
22851;SDS011;11592;45.460;9.240;2023-04-06T02:49:32;14.40;;;6.72;;
22851;SDS011;11592;45.460;9.240;2023-04-06T02:51:59;13.68;;;6.65;;
22851;SDS011;11592;45.460;9.240;2023-04-06T02:54:26;14.38;;;6.63;;
22851;SDS011;11592;45.460;9.240;2023-04-06T02:56:53;10.77;;;6.63;;
22851;SDS011;11592;45.460;9.240;2023-04-06T02:59:19;13.43;;;6.97;;
22851;SDS011;11592;45.460;9.240;2023-04-06T03:01:46;12.68;;;6.53;;
22851;SDS011;11592;45.460;9.240;2023-04-06T03:04:13;15.23;;;6.70;;
22851;SDS011;11592;45.460;9.240;2023-04-06T03:06:40;16.02;;;7.05;;
22851;SDS011;11592;45.460;9.240;2023-04-06T03:09:07;14.75;;;6.70;;
22851;SDS011;11592;45.460;9.240;2023-04-06T03:11:34;13.43;;;6.75;;
22851;SDS011;11592;45.460;9.240;2023-04-06T03:14:01;11.90;;;6.60;;
22851;SDS011;11592;45.460;9.240;2023-04-06T03:16:28;13.10;;;7.68;;
22851;SDS011;11592;45.460;9.240;2023-04-06T03:18:55;12.70;;;6.50;;
22851;SDS011;11592;45.460;9.240;2023-04-06T03:21:21;16.52;;;7.00;;
22851;SDS011;11592;45.460;9.240;2023-04-06T03:23:48;10.73;;;6.05;;
22851;SDS011;11592;45.460;9.240;2023-04-06T03:26:18;11.98;;;7.28;;
22851;SDS011;11592;45.460;9.240;2023-04-06T03:28:45;15.30;;;6.45;;
22851;SDS011;11592;45.460;9.240;2023-04-06T03:31:12;14.98;;;6.95;;
22851;SDS011;11592;45.460;9.240;2023-04-06T03:33:39;11.00;;;6.00;;
22851;SDS011;11592;45.460;9.240;2023-04-06T03:36:06;13.13;;;6.82;;
22851;SDS011;11592;45.460;9.240;2023-04-06T03:38:33;14.73;;;6.75;;
22851;SDS011;11592;45.460;9.240;2023-04-06T03:40:59;12.07;;;6.78;;
22851;SDS011;11592;45.460;9.240;2023-04-06T03:43:26;11.55;;;6.53;;
22851;SDS011;11592;45.460;9.240;2023-04-06T03:45:53;13.50;;;7.07;;
22851;SDS011;11592;45.460;9.240;2023-04-06T03:48:20;18.17;;;6.85;;
22851;SDS011;11592;45.460;9.240;2023-04-06T03:50:46;14.90;;;7.30;;
22851;SDS011;11592;45.460;9.240;2023-04-06T03:53:13;11.63;;;6.68;;
22851;SDS011;11592;45.460;9.240;2023-04-06T03:55:40;12.35;;;6.55;;
22851;SDS011;11592;45.460;9.240;2023-04-06T03:58:07;12.10;;;6.88;;
22851;SDS011;11592;45.460;9.240;2023-04-06T04:00:34;13.40;;;6.65;;
22851;SDS011;11592;45.460;9.240;2023-04-06T04:03:01;13.73;;;6.63;;
22851;SDS011;11592;45.460;9.240;2023-04-06T04:05:28;10.50;;;6.75;;
22851;SDS011;11592;45.460;9.240;2023-04-06T04:07:55;12.25;;;6.95;;
22851;SDS011;11592;45.460;9.240;2023-04-06T04:10:22;11.63;;;6.03;;
22851;SDS011;11592;45.460;9.240;2023-04-06T04:12:48;13.30;;;6.70;;
22851;SDS011;11592;45.460;9.240;2023-04-06T04:15:16;15.13;;;6.65;;
22851;SDS011;11592;45.460;9.240;2023-04-06T04:17:42;14.23;;;6.88;;
22851;SDS011;11592;45.460;9.240;2023-04-06T04:20:13;13.05;;;6.45;;
22851;SDS011;11592;45.460;9.240;2023-04-06T04:22:40;12.57;;;7.30;;
22851;SDS011;11592;45.460;9.240;2023-04-06T04:25:07;10.85;;;6.47;;
22851;SDS011;11592;45.460;9.240;2023-04-06T04:27:34;10.45;;;6.43;;
22851;SDS011;11592;45.460;9.240;2023-04-06T04:30:01;10.23;;;6.43;;
22851;SDS011;11592;45.460;9.240;2023-04-06T04:32:28;14.07;;;7.07;;
22851;SDS011;11592;45.460;9.240;2023-04-06T04:34:54;12.70;;;5.97;;
22851;SDS011;11592;45.460;9.240;2023-04-06T04:37:21;15.20;;;7.93;;
22851;SDS011;11592;45.460;9.240;2023-04-06T04:39:48;12.43;;;7.43;;
22851;SDS011;11592;45.460;9.240;2023-04-06T04:42:15;15.70;;;7.47;;
22851;SDS011;11592;45.460;9.240;2023-04-06T04:44:42;14.25;;;6.90;;
22851;SDS011;11592;45.460;9.240;2023-04-06T04:47:09;13.95;;;6.40;;
22851;SDS011;11592;45.460;9.240;2023-04-06T04:49:36;12.65;;;7.25;;
22851;SDS011;11592;45.460;9.240;2023-04-06T04:52:03;18.38;;;6.78;;
22851;SDS011;11592;45.460;9.240;2023-04-06T04:54:29;12.00;;;6.45;;
22851;SDS011;11592;45.460;9.240;2023-04-06T04:56:56;15.00;;;6.60;;
22851;SDS011;11592;45.460;9.240;2023-04-06T04:59:23;13.27;;;6.57;;
22851;SDS011;11592;45.460;9.240;2023-04-06T05:01:50;16.23;;;7.07;;
22851;SDS011;11592;45.460;9.240;2023-04-06T05:04:20;14.63;;;7.40;;
22851;SDS011;11592;45.460;9.240;2023-04-06T05:06:48;14.20;;;6.38;;
22851;SDS011;11592;45.460;9.240;2023-04-06T05:09:14;11.90;;;6.50;;
22851;SDS011;11592;45.460;9.240;2023-04-06T05:11:41;13.35;;;6.90;;
22851;SDS011;11592;45.460;9.240;2023-04-06T05:14:09;13.02;;;6.82;;
22851;SDS011;11592;45.460;9.240;2023-04-06T05:16:36;12.55;;;7.53;;
22851;SDS011;11592;45.460;9.240;2023-04-06T05:19:02;12.02;;;6.57;;
22851;SDS011;11592;45.460;9.240;2023-04-06T05:21:29;11.07;;;6.32;;
22851;SDS011;11592;45.460;9.240;2023-04-06T05:23:57;14.50;;;6.82;;
22851;SDS011;11592;45.460;9.240;2023-04-06T05:26:24;13.65;;;6.63;;
22851;SDS011;11592;45.460;9.240;2023-04-06T05:28:51;20.60;;;7.28;;
22851;SDS011;11592;45.460;9.240;2023-04-06T05:31:18;14.10;;;6.55;;
22851;SDS011;11592;45.460;9.240;2023-04-06T05:33:45;17.02;;;6.90;;
22851;SDS011;11592;45.460;9.240;2023-04-06T05:36:12;16.45;;;6.47;;
22851;SDS011;11592;45.460;9.240;2023-04-06T05:38:40;21.15;;;6.57;;
22851;SDS011;11592;45.460;9.240;2023-04-06T05:41:07;15.85;;;6.70;;
22851;SDS011;11592;45.460;9.240;2023-04-06T05:43:34;15.35;;;6.75;;
22851;SDS011;11592;45.460;9.240;2023-04-06T05:46:01;12.30;;;6.75;;
22851;SDS011;11592;45.460;9.240;2023-04-06T05:48:28;15.15;;;7.28;;
22851;SDS011;11592;45.460;9.240;2023-04-06T05:50:54;17.58;;;7.03;;
22851;SDS011;11592;45.460;9.240;2023-04-06T05:53:21;13.43;;;6.70;;
22851;SDS011;11592;45.460;9.240;2023-04-06T05:55:48;11.55;;;6.20;;
22851;SDS011;11592;45.460;9.240;2023-04-06T05:58:15;16.10;;;7.03;;
22851;SDS011;11592;45.460;9.240;2023-04-06T06:00:43;17.10;;;7.05;;
22851;SDS011;11592;45.460;9.240;2023-04-06T06:03:12;16.08;;;6.63;;
22851;SDS011;11592;45.460;9.240;2023-04-06T06:05:39;20.65;;;7.07;;
22851;SDS011;11592;45.460;9.240;2023-04-06T06:08:06;18.80;;;6.85;;
22851;SDS011;11592;45.460;9.240;2023-04-06T06:10:33;18.08;;;7.35;;
22851;SDS011;11592;45.460;9.240;2023-04-06T06:13:00;19.83;;;7.63;;
22851;SDS011;11592;45.460;9.240;2023-04-06T06:15:27;18.08;;;7.70;;
22851;SDS011;11592;45.460;9.240;2023-04-06T06:17:54;17.75;;;6.65;;
22851;SDS011;11592;45.460;9.240;2023-04-06T06:20:21;14.57;;;7.22;;
22851;SDS011;11592;45.460;9.240;2023-04-06T06:22:48;12.43;;;7.00;;
22851;SDS011;11592;45.460;9.240;2023-04-06T06:25:14;11.82;;;6.63;;
22851;SDS011;11592;45.460;9.240;2023-04-06T06:27:41;14.02;;;7.00;;
22851;SDS011;11592;45.460;9.240;2023-04-06T06:30:09;12.93;;;7.65;;
22851;SDS011;11592;45.460;9.240;2023-04-06T06:32:36;12.50;;;7.13;;
22851;SDS011;11592;45.460;9.240;2023-04-06T06:35:03;16.27;;;7.32;;
22851;SDS011;11592;45.460;9.240;2023-04-06T06:37:30;17.65;;;7.20;;
22851;SDS011;11592;45.460;9.240;2023-04-06T06:39:56;19.27;;;7.20;;
22851;SDS011;11592;45.460;9.240;2023-04-06T06:42:23;15.95;;;7.20;;
22851;SDS011;11592;45.460;9.240;2023-04-06T06:44:50;14.40;;;7.85;;
22851;SDS011;11592;45.460;9.240;2023-04-06T06:47:17;15.85;;;8.18;;
22851;SDS011;11592;45.460;9.240;2023-04-06T06:49:44;15.35;;;7.35;;
22851;SDS011;11592;45.460;9.240;2023-04-06T06:52:11;18.27;;;8.05;;
22851;SDS011;11592;45.460;9.240;2023-04-06T06:54:38;23.30;;;8.65;;
22851;SDS011;11592;45.460;9.240;2023-04-06T06:57:05;18.10;;;8.40;;
22851;SDS011;11592;45.460;9.240;2023-04-06T06:59:31;15.88;;;7.93;;
22851;SDS011;11592;45.460;9.240;2023-04-06T07:01:58;14.77;;;7.05;;
22851;SDS011;11592;45.460;9.240;2023-04-06T07:04:25;15.98;;;6.97;;
22851;SDS011;11592;45.460;9.240;2023-04-06T07:06:52;15.73;;;6.78;;
22851;SDS011;11592;45.460;9.240;2023-04-06T07:09:19;10.80;;;6.28;;
22851;SDS011;11592;45.460;9.240;2023-04-06T07:11:46;13.85;;;6.35;;
22851;SDS011;11592;45.460;9.240;2023-04-06T07:14:12;14.18;;;6.43;;
22851;SDS011;11592;45.460;9.240;2023-04-06T07:16:40;13.65;;;6.22;;
22851;SDS011;11592;45.460;9.240;2023-04-06T07:19:07;11.70;;;6.40;;
22851;SDS011;11592;45.460;9.240;2023-04-06T07:21:35;12.18;;;6.07;;
22851;SDS011;11592;45.460;9.240;2023-04-06T07:24:02;8.20;;;5.65;;
22851;SDS011;11592;45.460;9.240;2023-04-06T07:26:29;11.82;;;6.25;;
22851;SDS011;11592;45.460;9.240;2023-04-06T07:28:56;10.40;;;6.13;;
22851;SDS011;11592;45.460;9.240;2023-04-06T07:31:23;8.90;;;5.07;;
22851;SDS011;11592;45.460;9.240;2023-04-06T07:33:50;9.52;;;5.28;;
22851;SDS011;11592;45.460;9.240;2023-04-06T07:36:16;8.95;;;4.85;;
22851;SDS011;11592;45.460;9.240;2023-04-06T07:38:44;9.25;;;5.30;;
22851;SDS011;11592;45.460;9.240;2023-04-06T07:41:12;9.48;;;4.43;;
22851;SDS011;11592;45.460;9.240;2023-04-06T07:43:39;13.35;;;5.80;;
22851;SDS011;11592;45.460;9.240;2023-04-06T07:46:06;10.75;;;6.00;;
22851;SDS011;11592;45.460;9.240;2023-04-06T07:48:33;9.80;;;5.43;;
22851;SDS011;11592;45.460;9.240;2023-04-06T07:51:00;10.25;;;5.00;;
22851;SDS011;11592;45.460;9.240;2023-04-06T07:53:30;10.70;;;5.35;;
22851;SDS011;11592;45.460;9.240;2023-04-06T07:56:00;11.40;;;5.38;;
22851;SDS011;11592;45.460;9.240;2023-04-06T07:58:27;8.38;;;5.22;;
22851;SDS011;11592;45.460;9.240;2023-04-06T08:00:54;9.07;;;4.78;;
22851;SDS011;11592;45.460;9.240;2023-04-06T08:03:21;8.55;;;4.90;;
22851;SDS011;11592;45.460;9.240;2023-04-06T08:05:52;8.25;;;5.10;;
22851;SDS011;11592;45.460;9.240;2023-04-06T08:08:19;8.13;;;4.65;;
22851;SDS011;11592;45.460;9.240;2023-04-06T08:10:47;7.43;;;4.32;;
22851;SDS011;11592;45.460;9.240;2023-04-06T08:13:15;9.27;;;4.88;;
22851;SDS011;11592;45.460;9.240;2023-04-06T08:15:42;14.23;;;4.78;;
22851;SDS011;11592;45.460;9.240;2023-04-06T08:18:09;8.25;;;4.38;;
22851;SDS011;11592;45.460;9.240;2023-04-06T08:20:36;9.00;;;4.57;;
22851;SDS011;11592;45.460;9.240;2023-04-06T08:23:03;8.43;;;4.28;;
22851;SDS011;11592;45.460;9.240;2023-04-06T08:25:30;11.50;;;5.55;;
22851;SDS011;11592;45.460;9.240;2023-04-06T08:27:57;8.48;;;5.10;;
22851;SDS011;11592;45.460;9.240;2023-04-06T08:30:23;10.00;;;5.28;;
22851;SDS011;11592;45.460;9.240;2023-04-06T08:32:50;7.20;;;4.93;;
22851;SDS011;11592;45.460;9.240;2023-04-06T08:35:17;9.98;;;5.18;;
22851;SDS011;11592;45.460;9.240;2023-04-06T08:37:44;10.73;;;5.60;;
22851;SDS011;11592;45.460;9.240;2023-04-06T08:40:11;9.43;;;5.13;;
22851;SDS011;11592;45.460;9.240;2023-04-06T08:42:39;11.02;;;5.50;;
22851;SDS011;11592;45.460;9.240;2023-04-06T08:45:08;10.55;;;5.03;;
22851;SDS011;11592;45.460;9.240;2023-04-06T08:47:36;8.40;;;5.03;;
22851;SDS011;11592;45.460;9.240;2023-04-06T08:50:03;9.93;;;5.38;;
22851;SDS011;11592;45.460;9.240;2023-04-06T08:52:32;6.20;;;4.88;;
22851;SDS011;11592;45.460;9.240;2023-04-06T08:55:02;9.57;;;4.93;;
22851;SDS011;11592;45.460;9.240;2023-04-06T08:57:29;12.05;;;4.72;;
22851;SDS011;11592;45.460;9.240;2023-04-06T08:59:57;6.55;;;4.60;;
22851;SDS011;11592;45.460;9.240;2023-04-06T09:02:27;8.48;;;5.25;;
22851;SDS011;11592;45.460;9.240;2023-04-06T09:04:54;10.07;;;5.13;;
22851;SDS011;11592;45.460;9.240;2023-04-06T09:07:21;8.75;;;4.97;;
22851;SDS011;11592;45.460;9.240;2023-04-06T09:09:48;8.02;;;4.72;;
22851;SDS011;11592;45.460;9.240;2023-04-06T09:12:22;14.63;;;5.70;;
22851;SDS011;11592;45.460;9.240;2023-04-06T09:14:50;10.10;;;5.30;;
22851;SDS011;11592;45.460;9.240;2023-04-06T09:17:25;9.15;;;5.28;;
22851;SDS011;11592;45.460;9.240;2023-04-06T09:19:53;10.02;;;5.13;;
22851;SDS011;11592;45.460;9.240;2023-04-06T09:22:21;9.27;;;5.50;;
22851;SDS011;11592;45.460;9.240;2023-04-06T09:24:52;11.40;;;5.93;;
22851;SDS011;11592;45.460;9.240;2023-04-06T09:27:33;8.50;;;5.25;;
22851;SDS011;11592;45.460;9.240;2023-04-06T09:32:46;14.18;;;6.22;;
22851;SDS011;11592;45.460;9.240;2023-04-06T09:35:15;10.35;;;4.85;;
22851;SDS011;11592;45.460;9.240;2023-04-06T09:37:43;8.38;;;4.75;;
22851;SDS011;11592;45.460;9.240;2023-04-06T09:40:10;8.07;;;4.55;;
22851;SDS011;11592;45.460;9.240;2023-04-06T09:42:37;8.43;;;5.18;;
22851;SDS011;11592;45.460;9.240;2023-04-06T09:45:07;9.98;;;5.20;;
22851;SDS011;11592;45.460;9.240;2023-04-06T09:47:40;8.10;;;5.20;;
22851;SDS011;11592;45.460;9.240;2023-04-06T09:50:14;10.75;;;5.70;;
22851;SDS011;11592;45.460;9.240;2023-04-06T09:52:51;10.68;;;5.68;;
22851;SDS011;11592;45.460;9.240;2023-04-06T09:55:33;12.23;;;5.32;;
22851;SDS011;11592;45.460;9.240;2023-04-06T09:58:05;10.00;;;5.80;;
22851;SDS011;11592;45.460;9.240;2023-04-06T10:00:43;11.57;;;5.53;;
22851;SDS011;11592;45.460;9.240;2023-04-06T10:03:16;8.20;;;5.03;;
22851;SDS011;11592;45.460;9.240;2023-04-06T10:06:05;11.45;;;5.55;;
22851;SDS011;11592;45.460;9.240;2023-04-06T10:08:37;12.23;;;5.82;;
22851;SDS011;11592;45.460;9.240;2023-04-06T10:11:07;15.23;;;6.28;;
22851;SDS011;11592;45.460;9.240;2023-04-06T10:13:36;14.60;;;5.82;;
22851;SDS011;11592;45.460;9.240;2023-04-06T10:16:03;10.02;;;5.32;;
22851;SDS011;11592;45.460;9.240;2023-04-06T10:18:32;13.18;;;5.75;;
22851;SDS011;11592;45.460;9.240;2023-04-06T10:21:19;11.60;;;7.07;;
22851;SDS011;11592;45.460;9.240;2023-04-06T10:23:59;11.00;;;6.53;;
22851;SDS011;11592;45.460;9.240;2023-04-06T10:26:28;12.93;;;6.00;;
22851;SDS011;11592;45.460;9.240;2023-04-06T10:28:54;12.45;;;6.40;;
22851;SDS011;11592;45.460;9.240;2023-04-06T10:31:24;7.97;;;6.05;;
22851;SDS011;11592;45.460;9.240;2023-04-06T10:33:54;11.43;;;6.03;;
22851;SDS011;11592;45.460;9.240;2023-04-06T10:36:23;11.95;;;7.05;;
22851;SDS011;11592;45.460;9.240;2023-04-06T10:38:56;10.52;;;5.95;;
22851;SDS011;11592;45.460;9.240;2023-04-06T10:41:43;14.85;;;6.78;;
22851;SDS011;11592;45.460;9.240;2023-04-06T10:44:20;10.85;;;6.63;;
22851;SDS011;11592;45.460;9.240;2023-04-06T10:46:58;10.55;;;6.65;;
22851;SDS011;11592;45.460;9.240;2023-04-06T10:49:28;10.63;;;6.35;;
22851;SDS011;11592;45.460;9.240;2023-04-06T10:51:56;9.85;;;6.18;;
22851;SDS011;11592;45.460;9.240;2023-04-06T10:54:23;10.98;;;6.28;;
22851;SDS011;11592;45.460;9.240;2023-04-06T10:56:51;15.32;;;6.72;;
22851;SDS011;11592;45.460;9.240;2023-04-06T10:59:19;13.50;;;6.53;;
22851;SDS011;11592;45.460;9.240;2023-04-06T11:01:47;10.55;;;6.25;;
22851;SDS011;11592;45.460;9.240;2023-04-06T11:04:18;13.63;;;7.30;;
22851;SDS011;11592;45.460;9.240;2023-04-06T11:06:47;9.77;;;6.65;;
22851;SDS011;11592;45.460;9.240;2023-04-06T11:11:52;10.80;;;6.38;;
22851;SDS011;11592;45.460;9.240;2023-04-06T11:14:19;12.30;;;6.80;;
22851;SDS011;11592;45.460;9.240;2023-04-06T11:16:47;11.80;;;7.25;;
22851;SDS011;11592;45.460;9.240;2023-04-06T11:19:17;8.75;;;6.07;;
22851;SDS011;11592;45.460;9.240;2023-04-06T11:21:45;9.45;;;6.20;;
22851;SDS011;11592;45.460;9.240;2023-04-06T11:24:15;14.63;;;7.47;;
22851;SDS011;11592;45.460;9.240;2023-04-06T11:26:49;11.82;;;6.93;;
22851;SDS011;11592;45.460;9.240;2023-04-06T11:29:19;9.43;;;6.40;;
22851;SDS011;11592;45.460;9.240;2023-04-06T11:31:51;15.68;;;7.18;;
22851;SDS011;11592;45.460;9.240;2023-04-06T11:34:29;13.98;;;7.25;;
22851;SDS011;11592;45.460;9.240;2023-04-06T11:36:57;11.02;;;6.30;;
22851;SDS011;11592;45.460;9.240;2023-04-06T11:39:27;9.05;;;6.82;;
22851;SDS011;11592;45.460;9.240;2023-04-06T11:41:57;15.00;;;7.55;;
22851;SDS011;11592;45.460;9.240;2023-04-06T11:46:59;17.05;;;9.00;;
22851;SDS011;11592;45.460;9.240;2023-04-06T11:49:30;16.58;;;7.78;;
22851;SDS011;11592;45.460;9.240;2023-04-06T11:51:58;12.00;;;7.10;;
22851;SDS011;11592;45.460;9.240;2023-04-06T11:54:36;12.82;;;7.82;;
22851;SDS011;11592;45.460;9.240;2023-04-06T11:57:04;12.00;;;7.57;;
22851;SDS011;11592;45.460;9.240;2023-04-06T11:59:31;15.30;;;7.82;;
22851;SDS011;11592;45.460;9.240;2023-04-06T12:02:02;14.82;;;8.07;;
22851;SDS011;11592;45.460;9.240;2023-04-06T12:04:29;11.65;;;7.20;;
22851;SDS011;11592;45.460;9.240;2023-04-06T12:06:57;17.52;;;8.05;;
22851;SDS011;11592;45.460;9.240;2023-04-06T12:09:24;14.27;;;7.75;;
22851;SDS011;11592;45.460;9.240;2023-04-06T12:11:51;13.55;;;7.95;;
22851;SDS011;11592;45.460;9.240;2023-04-06T12:14:17;12.18;;;7.72;;
22851;SDS011;11592;45.460;9.240;2023-04-06T12:16:44;14.05;;;7.63;;
22851;SDS011;11592;45.460;9.240;2023-04-06T12:19:11;10.60;;;7.20;;
22851;SDS011;11592;45.460;9.240;2023-04-06T12:21:38;14.13;;;7.22;;
22851;SDS011;11592;45.460;9.240;2023-04-06T12:24:05;12.43;;;7.15;;
22851;SDS011;11592;45.460;9.240;2023-04-06T12:26:32;11.70;;;7.35;;
22851;SDS011;11592;45.460;9.240;2023-04-06T12:28:59;18.48;;;8.32;;
22851;SDS011;11592;45.460;9.240;2023-04-06T12:31:35;21.73;;;7.93;;
22851;SDS011;11592;45.460;9.240;2023-04-06T12:34:05;13.60;;;8.18;;
22851;SDS011;11592;45.460;9.240;2023-04-06T12:36:32;14.45;;;8.10;;
22851;SDS011;11592;45.460;9.240;2023-04-06T12:38:59;15.15;;;8.30;;
22851;SDS011;11592;45.460;9.240;2023-04-06T12:41:29;12.68;;;8.18;;
22851;SDS011;11592;45.460;9.240;2023-04-06T12:43:57;13.25;;;8.18;;
22851;SDS011;11592;45.460;9.240;2023-04-06T12:46:25;11.98;;;8.27;;
22851;SDS011;11592;45.460;9.240;2023-04-06T12:48:53;15.05;;;9.02;;
22851;SDS011;11592;45.460;9.240;2023-04-06T12:51:21;19.63;;;8.65;;
22851;SDS011;11592;45.460;9.240;2023-04-06T12:53:48;12.63;;;8.85;;
22851;SDS011;11592;45.460;9.240;2023-04-06T12:56:15;14.80;;;9.98;;
22851;SDS011;11592;45.460;9.240;2023-04-06T12:58:43;14.90;;;9.65;;
22851;SDS011;11592;45.460;9.240;2023-04-06T13:01:11;18.20;;;9.52;;
22851;SDS011;11592;45.460;9.240;2023-04-06T13:03:42;49.67;;;11.30;;
22851;SDS011;11592;45.460;9.240;2023-04-06T13:06:09;15.40;;;8.50;;
22851;SDS011;11592;45.460;9.240;2023-04-06T13:08:37;13.48;;;8.35;;
22851;SDS011;11592;45.460;9.240;2023-04-06T13:11:05;13.48;;;9.25;;
22851;SDS011;11592;45.460;9.240;2023-04-06T13:13:34;18.40;;;8.57;;
22851;SDS011;11592;45.460;9.240;2023-04-06T13:16:06;17.92;;;8.80;;
22851;SDS011;11592;45.460;9.240;2023-04-06T13:18:34;21.80;;;9.82;;
22851;SDS011;11592;45.460;9.240;2023-04-06T13:21:02;14.80;;;9.20;;
22851;SDS011;11592;45.460;9.240;2023-04-06T13:23:30;15.20;;;8.73;;
22851;SDS011;11592;45.460;9.240;2023-04-06T13:26:04;13.95;;;9.02;;
22851;SDS011;11592;45.460;9.240;2023-04-06T13:28:34;13.50;;;8.50;;
22851;SDS011;11592;45.460;9.240;2023-04-06T13:31:04;17.33;;;8.65;;
22851;SDS011;11592;45.460;9.240;2023-04-06T13:33:31;18.33;;;8.57;;
22851;SDS011;11592;45.460;9.240;2023-04-06T13:35:58;16.40;;;9.10;;
22851;SDS011;11592;45.460;9.240;2023-04-06T13:38:25;16.23;;;8.88;;
22851;SDS011;11592;45.460;9.240;2023-04-06T13:40:53;15.13;;;8.70;;
22851;SDS011;11592;45.460;9.240;2023-04-06T13:43:20;12.63;;;8.60;;
22851;SDS011;11592;45.460;9.240;2023-04-06T13:45:50;22.63;;;8.25;;
22851;SDS011;11592;45.460;9.240;2023-04-06T13:48:18;15.32;;;8.65;;
22851;SDS011;11592;45.460;9.240;2023-04-06T13:50:45;17.50;;;9.13;;
22851;SDS011;11592;45.460;9.240;2023-04-06T13:53:12;14.07;;;9.30;;
22851;SDS011;11592;45.460;9.240;2023-04-06T13:55:40;13.95;;;8.82;;
22851;SDS011;11592;45.460;9.240;2023-04-06T13:58:07;14.07;;;8.90;;
22851;SDS011;11592;45.460;9.240;2023-04-06T14:00:34;17.17;;;9.25;;
22851;SDS011;11592;45.460;9.240;2023-04-06T14:03:01;17.10;;;9.40;;
22851;SDS011;11592;45.460;9.240;2023-04-06T14:05:32;14.45;;;9.32;;
22851;SDS011;11592;45.460;9.240;2023-04-06T14:07:59;17.95;;;8.73;;
22851;SDS011;11592;45.460;9.240;2023-04-06T14:10:26;14.15;;;9.32;;
22851;SDS011;11592;45.460;9.240;2023-04-06T14:12:54;13.85;;;9.40;;
22851;SDS011;11592;45.460;9.240;2023-04-06T14:15:21;19.90;;;9.32;;
22851;SDS011;11592;45.460;9.240;2023-04-06T14:17:49;15.52;;;8.63;;
22851;SDS011;11592;45.460;9.240;2023-04-06T14:20:16;13.90;;;9.45;;
22851;SDS011;11592;45.460;9.240;2023-04-06T14:22:43;20.60;;;8.88;;
22851;SDS011;11592;45.460;9.240;2023-04-06T14:25:10;11.68;;;7.97;;
22851;SDS011;11592;45.460;9.240;2023-04-06T14:27:37;11.57;;;7.43;;
22851;SDS011;11592;45.460;9.240;2023-04-06T14:30:04;12.55;;;8.10;;
22851;SDS011;11592;45.460;9.240;2023-04-06T14:32:32;18.58;;;8.93;;
22851;SDS011;11592;45.460;9.240;2023-04-06T14:34:59;12.00;;;8.32;;
22851;SDS011;11592;45.460;9.240;2023-04-06T14:37:26;11.70;;;8.23;;
22851;SDS011;11592;45.460;9.240;2023-04-06T14:39:53;19.05;;;9.40;;
22851;SDS011;11592;45.460;9.240;2023-04-06T14:42:19;17.88;;;9.25;;
22851;SDS011;11592;45.460;9.240;2023-04-06T14:44:46;16.02;;;8.23;;
22851;SDS011;11592;45.460;9.240;2023-04-06T14:47:14;16.52;;;8.52;;